Strona główna
METAR-TAF:

METAR-TAF

Lotnisko :

Port lotniczy Brive

Brive-la-Gaillarde, Francja

Szerokość geograficzna: 45-02-28N, Długość geograficzna: 001-28-59E, wysokość: 311 m

Aktualna obserwacja pogody

Raport powstał 39 minut temu, godzina 21:30 UTC
Wiatr 4 kt od północno-północny wschód
Temperatura 20°C
Wilgotność 40%
Ciśnienie 1014 hPa
Widzialność 10 km lub więcej
Brak chmur poniżej 1500 m i brak chmur cumulonimbus

METAR: LFSL 302130Z AUTO 03004KT CAVOK 20/06 Q1014

czas: 00:09 (22:09 UTC)


TAF: brakujący

Obserwacja i prognoza pogody dla ponad 4000 lotnisk (raport METAR i TAF).

Dostępne stacje oznaczono żółtymi i czerwonymi punktami na mapie.

Najedź kursorem aby zobaczyć nazwę stacji.

Kliknij aby zobaczyć obserwacje i prognozy pogody.

Aby zmienić mapę: kliknij na zielony przycisk z czarnym krzyżykiem, aby powiększyć; na zielony przycisk z myślnikiem, aby pomniejszyć; na zielone strzałki, aby przejść do map sąsiednich.


METAR-TAF: